Flight Track Log - Related Links

Times and Time Zones

All times are in EDT time to prevent confusion due to time zone crossing. See the VNR104 flight status page for this flight to view local times or setup timezone preferences in your user account.

Time Position Orientation Groundspeed Altitude Reporting Facility
EDT Latitude Longitude Course Direction KTS MPH feet Rate Location/Type
Sat 09:22:49 AM 36.0686 -115.1733 78° East 157 181 3,100  Level Los Angeles Center
Sat 09:23:13 AM 36.0525 -115.1786 195° South 162 186 3,800 2,357 Climbing Los Angeles Center
Sat 09:24:13 AM 36.0053 -115.1808 182° South 176 203 6,400 2,348 Climbing Los Angeles Center
Sat 09:25:08 AM 35.9903 -115.1267 109° East 185 213 8,300 2,224 Climbing Los Angeles Center
Sat 09:26:09 AM 35.9747 -115.0628 107° East 191 220 10,700 2,361 Climbing Los Angeles Center
Sat 09:27:10 AM 35.9600 -114.9983 106° East 194 223 13,100 2,231 Climbing Los Angeles Center
Sat 09:28:00 AM 36.0965 -114.9209 78° East  Level FlightAware Approximate
Sat 09:28:10 AM 35.9372 -114.9339 114° Southeast 201 231 15,200  Level Los Angeles Center
Sat 09:29:11 AM 35.9069 -114.8639 118° Southeast 227 261 17,400 2,066 Climbing Los Angeles Center
Sat 09:30:12 AM 35.8775 -114.7908 116° Southeast 237 273 19,400 1,967 Climbing Los Angeles Center
Sat 09:31:13 AM 35.8453 -114.7117 117° Southeast 255 293 21,400 2,083 Climbing Los Angeles Center
Sat 09:32:13 AM 35.8142 -114.6342 116° Southeast 255 293 23,600 2,083 Climbing Los Angeles Center
Sat 09:33:14 AM 35.7822 -114.5567 117° Southeast 255 293 25,600 1,820 Climbing Los Angeles Center
Sat 09:34:15 AM 35.7503 -114.4772 116° Southeast 257 296 27,300 1,574 Climbing Los Angeles Center
Sat 09:35:16 AM 35.7144 -114.3933 118° Southeast 272 313 28,800 1,537 Climbing Los Angeles Center
Sat 09:36:16 AM 35.6803 -114.3083 116° Southeast 275 316 30,400 1,091 Climbing Los Angeles Center
Sat 09:37:17 AM 35.6406 -114.2108 117° Southeast 283 326 31,000 295 Climbing Los Angeles Center
Sat 09:38:18 AM 35.6011 -114.1111 116° Southeast 318 366 31,000  Level Los Angeles Center
Sat 09:39:19 AM 35.5564 -114.0039 117° Southeast 344 396 31,000  Level Los Angeles Center
Sat 09:40:20 AM 35.5089 -113.8950 118° Southeast 360 414 31,000  Level Los Angeles Center
Sat 09:41:21 AM 35.4622 -113.7831 117° Southeast 368 423 31,000  Level Los Angeles Center
Sat 09:42:22 AM 35.4161 -113.6719 117° Southeast 369 425 31,000  Level Los Angeles Center
Sat 09:43:22 AM 35.3692 -113.5614 117° Southeast 369 425 31,000  Level Los Angeles Center
Sat 09:44:23 AM 35.3231 -113.4506 117° Southeast 369 425 31,000  Level Los Angeles Center
Sat 09:45:24 AM 35.2761 -113.3406 118° Southeast 368 423 31,000  Level Los Angeles Center
Sat 09:46:25 AM 35.2231 -113.2158 117° Southeast 367 422 31,000  Level Los Angeles Center
Sat 09:47:26 AM 35.1758 -113.1044 117° Southeast 369 425 31,000  Level Los Angeles Center
Sat 09:48:27 AM 35.1272 -112.9911 118° Southeast 369 425 31,000  Level Los Angeles Center
Sat 09:49:28 AM 35.0797 -112.8797 117° Southeast 373 429 31,000  Level Los Angeles Center
Sat 09:50:31 AM 35.0328 -112.7700 118° Southeast 372 428 31,000  Level Los Angeles Center
Sat 09:51:30 AM 34.9847 -112.6586 118° Southeast 373 429 31,000  Level Los Angeles Center
Sat 09:52:37 AM 34.9264 -112.5258 118° Southeast 372 428 31,000  Level Albuquerque Center
Sat 09:53:38 AM 34.8794 -112.4158 117° Southeast 371 427 31,000  Level Albuquerque Center
Sat 09:54:39 AM 34.8300 -112.3058 119° Southeast 371 427 31,000 -246 Level Albuquerque Center
Sat 09:55:40 AM 34.7811 -112.1950 118° Southeast 373 429 30,500 -639 Descending Albuquerque Center
Sat 09:56:41 AM 34.7300 -112.0792 118° Southeast 378 435 29,700 -738 Descending Albuquerque Center
Sat 09:57:42 AM 34.6789 -111.9636 118° Southeast 385 443 29,000 -344 Descending Albuquerque Center
Sat 09:58:43 AM 34.6281 -111.8489 118° Southeast 385 443 29,000  Level Albuquerque Center
Sat 09:59:44 AM 34.5781 -111.7344 118° Southeast 384 442 29,000  Level Albuquerque Center
Sat 10:00:45 AM 34.5264 -111.6189 118° Southeast 387 445 29,000  Level Albuquerque Center
Sat 10:01:46 AM 34.4761 -111.5053 118° Southeast 383 441 29,000  Level Albuquerque Center
Sat 10:02:47 AM 34.4253 -111.3925 119° Southeast 381 438 29,000  Level Albuquerque Center
Sat 10:03:48 AM 34.3633 -111.2553 119° Southeast 384 442 29,000  Level Albuquerque Center
Sat 10:04:49 AM 34.3128 -111.1436 119° Southeast 380 437 29,000  Level Albuquerque Center
Sat 10:05:50 AM 34.2628 -111.0303 118° Southeast 380 437 29,000  Level Albuquerque Center
Sat 10:06:51 AM 34.2108 -110.9158 119° Southeast 385 443 29,000  Level Albuquerque Center
Sat 10:07:52 AM 34.1581 -110.8025 119° Southeast 386 444 29,000  Level Albuquerque Center
Sat 10:08:54 AM 34.1056 -110.6867 119° Southeast 387 445 29,000  Level Albuquerque Center
Sat 10:09:55 AM 34.0553 -110.5739 118° Southeast 387 445 29,000  Level Albuquerque Center
Sat 10:10:56 AM 34.0042 -110.4592 118° Southeast 389 448 29,000  Level Albuquerque Center
Sat 10:11:57 AM 33.9500 -110.3489 121° Southeast 388 447 29,000  Level Albuquerque Center
Sat 10:12:59 AM 33.8994 -110.2361 118° Southeast 388 447 29,000  Level Albuquerque Center
Sat 10:14:00 AM 33.8461 -110.1233 120° Southeast 390 449 29,000  Level Albuquerque Center
Sat 10:15:01 AM 33.7856 -109.9903 119° Southeast 384 442 29,000  Level Albuquerque Center
Sat 10:16:02 AM 33.7328 -109.8769 119° Southeast 390 449 29,000  Level Albuquerque Center
Sat 10:17:04 AM 33.6814 -109.7650 119° Southeast 387 445 29,000  Level Albuquerque Center
Sat 10:18:05 AM 33.6286 -109.6542 120° Southeast 386 444 29,000  Level Albuquerque Center
Sat 10:19:06 AM 33.5761 -109.5431 120° Southeast 386 444 29,000  Level Albuquerque Center
Sat 10:20:08 AM 33.5231 -109.4317 120° Southeast 387 445 29,000  Level Albuquerque Center
Sat 10:21:09 AM 33.4697 -109.3200 120° Southeast 389 448 29,000  Level Albuquerque Center
Sat 10:22:11 AM 33.4050 -109.1864 120° Southeast 389 448 29,000  Level Albuquerque Center
Sat 10:23:12 AM 33.3517 -109.0747 120° Southeast 388 447 29,000  Level Albuquerque Center
Sat 10:24:13 AM 33.2978 -108.9625 120° Southeast 389 448 29,000  Level Albuquerque Center
Sat 10:25:15 AM 33.2436 -108.8506 120° Southeast 389 448 29,000  Level Albuquerque Center
Sat 10:26:16 AM 33.1900 -108.7369 119° Southeast 390 449 29,000  Level Albuquerque Center
Sat 10:27:18 AM 33.1339 -108.6250 121° Southeast 392 451 29,000  Level Albuquerque Center
Sat 10:28:19 AM 33.0800 -108.5131 120° Southeast 390 449 29,000  Level Albuquerque Center
Sat 10:29:21 AM 33.0253 -108.4017 120° Southeast 390 449 29,000  Level Albuquerque Center
Sat 10:30:22 AM 32.9597 -108.2697 121° Southeast 388 447 29,000  Level Albuquerque Center
Sat 10:31:24 AM 32.9056 -108.1583 120° Southeast 390 449 29,000  Level Albuquerque Center
Sat 10:32:25 AM 32.8522 -108.0506 120° Southeast 390 449 29,000  Level Albuquerque Center
Sat 10:33:27 AM 32.7972 -107.9397 121° Southeast 390 449 29,000  Level Albuquerque Center
Sat 10:34:28 AM 32.7411 -107.8292 121° Southeast 391 450 29,000  Level Albuquerque Center
Sat 10:35:30 AM 32.6867 -107.7172 120° Southeast 392 451 29,000  Level Albuquerque Center
Sat 10:36:31 AM 32.6319 -107.6083 121° Southeast 388 447 29,000 -1,707 Level Albuquerque Center
Sat 10:37:33 AM 32.5725 -107.4886 120° Southeast 365 420 25,500 -2,927 Descending Albuquerque Center
Sat 10:38:34 AM 32.5231 -107.3903 121° Southeast 352 405 23,000 -2,390 Descending Albuquerque Center
Sat 10:39:36 AM 32.4753 -107.2939 120° Southeast 346 398 20,600 -2,565 Descending Albuquerque Center
Sat 10:40:38 AM 32.4303 -107.2025 120° Southeast 338 389 17,700 -2,806 Descending Albuquerque Center

Login

Don't have an account? Register now (free) for customized features, flight alerts, and more!